createdAt,value
2023-03-07T00:01:40.443Z,99579.64
2023-03-07T00:04:09.073Z,99580.41
2023-03-07T00:06:39.761Z,99578.86
2023-03-07T00:09:08.460Z,99579.61
2023-03-07T00:11:41.595Z,99581.53
2023-03-07T00:14:10.394Z,99587.69
2023-03-07T00:16:39.240Z,99591.87
2023-03-07T00:19:08.381Z,99597.13
2023-03-07T00:21:37.738Z,99601.91
2023-03-07T00:24:07.351Z,99601.67
2023-03-07T00:26:40.195Z,99607.04
2023-03-07T00:29:09.605Z,99612.99
2023-03-07T00:31:58.209Z,99608.26
2023-03-07T00:34:26.668Z,99604.98
2023-03-07T00:36:55.286Z,99606.48
2023-03-07T00:39:28.187Z,99612.88
2023-03-07T00:41:56.793Z,99615.52
2023-03-07T00:44:27.354Z,99615.20
2023-03-07T00:46:56.619Z,99613.30
2023-03-07T00:49:25.682Z,99612.97
2023-03-07T00:51:54.960Z,99603.25
2023-03-07T00:54:23.876Z,99599.71
2023-03-07T00:56:53.949Z,99602.38
2023-03-07T00:59:23.832Z,99589.61
2023-03-07T01:01:52.890Z,99584.45
2023-03-07T01:04:23.126Z,99585.88
2023-03-07T01:06:53.070Z,99578.54
2023-03-07T01:09:24.023Z,99578.38
2023-03-07T01:11:54.114Z,99581.70
2023-03-07T01:14:24.271Z,99582.68
2023-03-07T01:16:53.160Z,99581.83
2023-03-07T01:19:23.267Z,99578.87
2023-03-07T01:21:58.625Z,99569.76
2023-03-07T01:24:27.406Z,99571.64
2023-03-07T01:26:56.534Z,99573.48
2023-03-07T01:29:25.992Z,99567.52
2023-03-07T01:31:55.093Z,99571.08
2023-03-07T01:34:24.421Z,99570.43
2023-03-07T01:36:54.303Z,99567.80
2023-03-07T01:39:23.227Z,99564.94
2023-03-07T01:42:11.801Z,99558.30
2023-03-07T01:45:01.925Z,99558.97
2023-03-07T01:47:41.142Z,99554.10
2023-03-07T01:50:12.788Z,99552.48
2023-03-07T01:52:49.545Z,99545.05
2023-03-07T01:55:19.592Z,99541.20
2023-03-07T01:57:51.958Z,99545.13
2023-03-07T02:00:30.970Z,99548.61
2023-03-07T02:03:06.467Z,99543.81
2023-03-07T02:05:57.544Z,99542.11
2023-03-07T02:08:31.622Z,99536.52
2023-03-07T02:11:01.295Z,99534.41
2023-03-07T02:13:30.484Z,99531.23
2023-03-07T02:16:00.311Z,99532.13
2023-03-07T02:18:31.282Z,99529.54
2023-03-07T02:21:05.538Z,99529.65
2023-03-07T02:23:38.380Z,99525.45
2023-03-07T02:26:32.709Z,99520.80
2023-03-07T02:29:02.693Z,99512.95
2023-03-07T02:31:32.313Z,99505.63
2023-03-07T02:34:02.121Z,99498.40
2023-03-07T02:36:35.253Z,99495.27
2023-03-07T02:39:14.938Z,99486.95
2023-03-07T02:41:45.284Z,99483.00
2023-03-07T02:44:20.920Z,99473.36
2023-03-07T02:46:49.809Z,99469.02
2023-03-07T02:49:20.014Z,99466.46
2023-03-07T02:51:48.796Z,99458.98
2023-03-07T02:54:17.328Z,99451.27
2023-03-07T02:56:45.997Z,99445.71
2023-03-07T02:59:14.420Z,99443.23
2023-03-07T03:01:43.558Z,99437.59
2023-03-07T03:04:12.294Z,99431.77
2023-03-07T03:06:41.400Z,99428.92
2023-03-07T03:09:11.757Z,99421.02
2023-03-07T03:11:40.741Z,99413.84
2023-03-07T03:14:11.229Z,99409.46
2023-03-07T03:16:41.529Z,99407.65
2023-03-07T03:19:12.137Z,99398.58
2023-03-07T03:21:42.338Z,99394.72
2023-03-07T03:24:11.087Z,99386.23
2023-03-07T03:26:41.782Z,99382.52
2023-03-07T03:29:10.836Z,99376.81
2023-03-07T03:31:39.554Z,99372.88
2023-03-07T03:34:09.794Z,99362.57
2023-03-07T03:36:39.393Z,99351.61
2023-03-07T03:39:11.251Z,99346.55
2023-03-07T03:41:46.056Z,99343.05
2023-03-07T03:44:15.370Z,99339.63
2023-03-07T03:46:43.912Z,99337.58
2023-03-07T03:49:13.840Z,99338.36
2023-03-07T03:51:46.103Z,99336.52
2023-03-07T03:54:15.299Z,99339.17
2023-03-07T03:56:44.637Z,99341.67
2023-03-07T03:59:13.218Z,99340.64
2023-03-07T04:01:42.464Z,99342.41
2023-03-07T04:04:11.458Z,99348.55
2023-03-07T04:06:40.586Z,99365.11
2023-03-07T04:09:12.669Z,99377.55
2023-03-07T04:11:45.593Z,99388.65
2023-03-07T04:14:14.984Z,99404.10
2023-03-07T04:16:45.087Z,99431.62
2023-03-07T04:19:14.361Z,99446.39
2023-03-07T04:21:44.746Z,99453.27
2023-03-07T04:24:19.900Z,99463.50
2023-03-07T04:26:49.002Z,99472.58
2023-03-07T04:29:17.524Z,99481.19
2023-03-07T04:31:53.001Z,99486.14
2023-03-07T04:34:21.883Z,99481.23
2023-03-07T04:36:50.754Z,99482.11
2023-03-07T04:39:20.106Z,99496.36
2023-03-07T04:41:48.900Z,99507.93
2023-03-07T04:44:21.421Z,99518.27
2023-03-07T04:46:50.094Z,99525.80
2023-03-07T04:49:19.515Z,99527.11
2023-03-07T04:51:48.373Z,99518.13
2023-03-07T04:54:21.984Z,99517.29
2023-03-07T04:56:51.762Z,99510.77
2023-03-07T04:59:21.469Z,99504.54
2023-03-07T05:01:50.814Z,99502.45
2023-03-07T05:04:19.799Z,99493.80
2023-03-07T05:06:49.102Z,99482.04
2023-03-07T05:09:18.192Z,99470.52
2023-03-07T05:11:47.244Z,99465.00
2023-03-07T05:14:16.341Z,99460.81
2023-03-07T05:16:45.173Z,99458.18
2023-03-07T05:19:13.733Z,99451.08
2023-03-07T05:22:03.487Z,99442.64
2023-03-07T05:24:41.047Z,99437.30
2023-03-07T05:27:11.312Z,99428.39
2023-03-07T05:29:40.056Z,99408.65
2023-03-07T05:32:08.754Z,99411.75
2023-03-07T05:34:40.812Z,99428.00
2023-03-07T05:37:10.329Z,99427.48
2023-03-07T05:39:39.417Z,99427.45
2023-03-07T05:42:08.124Z,99426.10
2023-03-07T05:44:38.213Z,99472.97
2023-03-07T05:47:07.420Z,99463.63
2023-03-07T05:49:37.063Z,99450.60
2023-03-07T05:52:06.137Z,99439.84
2023-03-07T05:54:34.974Z,99429.30
2023-03-07T05:57:03.906Z,99417.84
2023-03-07T05:59:32.731Z,99404.90
2023-03-07T06:02:02.734Z,99401.83
2023-03-07T06:04:32.224Z,99390.96
2023-03-07T06:07:01.127Z,99381.46
2023-03-07T06:09:31.093Z,99365.36
2023-03-07T06:12:00.271Z,99355.17
2023-03-07T06:14:38.130Z,99343.94
2023-03-07T06:17:07.292Z,99341.09
2023-03-07T06:19:36.234Z,99333.78
2023-03-07T06:22:09.200Z,99326.48
2023-03-07T06:24:38.938Z,99324.23
2023-03-07T06:27:07.816Z,99319.08
2023-03-07T06:29:37.098Z,99314.45
2023-03-07T06:32:06.654Z,99310.64
2023-03-07T06:34:35.777Z,99314.05
2023-03-07T06:37:04.661Z,99313.52
2023-03-07T06:39:34.532Z,99311.48
2023-03-07T06:42:03.805Z,99317.90
2023-03-07T06:44:32.372Z,99326.48
2023-03-07T06:47:06.119Z,99340.21
2023-03-07T06:49:36.393Z,99352.52
2023-03-07T06:52:06.036Z,99364.64
2023-03-07T06:54:40.427Z,99374.98
2023-03-07T06:57:09.063Z,99380.86
2023-03-07T06:59:38.337Z,99395.09
2023-03-07T07:02:07.584Z,99409.44
2023-03-07T07:04:36.701Z,99420.80
2023-03-07T07:07:08.325Z,99431.20
2023-03-07T07:09:38.192Z,99438.41
2023-03-07T07:12:07.356Z,99450.05
2023-03-07T07:14:43.282Z,99453.64
2023-03-07T07:17:12.695Z,99462.87
2023-03-07T07:19:41.416Z,99476.98
2023-03-07T07:22:12.362Z,99484.27
2023-03-07T07:24:41.955Z,99493.78
2023-03-07T07:27:12.563Z,99498.48
2023-03-07T07:29:41.932Z,99506.64
2023-03-07T07:32:11.329Z,99520.05
2023-03-07T07:34:40.490Z,99531.75
2023-03-07T07:37:09.589Z,99548.38
2023-03-07T07:39:43.247Z,99550.82
2023-03-07T07:42:12.601Z,99563.00
2023-03-07T07:44:51.523Z,99573.30
2023-03-07T07:47:23.888Z,99585.55
2023-03-07T07:49:53.270Z,99592.41
2023-03-07T07:52:23.231Z,99608.65
2023-03-07T07:54:52.731Z,99610.25
2023-03-07T07:57:22.746Z,99619.46
2023-03-07T07:59:52.145Z,99632.06
2023-03-07T08:02:21.212Z,99645.73
2023-03-07T08:04:50.417Z,99661.16
2023-03-07T08:07:19.989Z,99671.33
2023-03-07T08:09:49.010Z,99685.92
2023-03-07T08:12:20.009Z,99691.92
2023-03-07T08:14:48.893Z,99699.21
2023-03-07T08:17:17.418Z,99704.26
2023-03-07T08:19:50.520Z,99723.30
2023-03-07T08:22:19.717Z,99734.00
2023-03-07T08:24:51.829Z,99752.48
2023-03-07T08:27:20.670Z,99770.42
2023-03-07T08:29:50.420Z,99782.45
2023-03-07T08:32:19.196Z,99792.56
2023-03-07T08:34:48.802Z,99802.16
2023-03-07T08:37:17.504Z,99814.32
2023-03-07T08:39:46.184Z,99824.11
2023-03-07T08:42:15.292Z,99830.49
2023-03-07T08:44:44.130Z,99841.48
2023-03-07T08:47:13.731Z,99848.69
2023-03-07T08:49:42.813Z,99855.92
2023-03-07T08:52:12.401Z,99865.52
2023-03-07T08:54:41.493Z,99873.52
2023-03-07T08:57:11.046Z,99881.16
2023-03-07T08:59:40.313Z,99890.77
2023-03-07T09:02:13.706Z,99900.28
2023-03-07T09:04:42.463Z,99909.95
2023-03-07T09:07:11.544Z,99918.67
2023-03-07T09:09:42.513Z,99924.20
2023-03-07T09:12:14.754Z,99931.52
2023-03-07T09:14:44.096Z,99936.94
2023-03-07T09:17:13.383Z,99946.35
2023-03-07T09:19:43.533Z,99950.83
2023-03-07T09:22:13.009Z,99956.63
2023-03-07T09:24:48.560Z,99958.67
2023-03-07T09:27:17.593Z,99959.65
2023-03-07T09:29:47.483Z,99959.15
2023-03-07T09:32:17.864Z,99958.83
2023-03-07T09:34:47.864Z,99959.03
2023-03-07T09:37:16.623Z,99963.95
2023-03-07T09:39:45.537Z,99960.21
2023-03-07T09:42:24.618Z,99956.72
2023-03-07T09:45:08.733Z,99953.08
2023-03-07T09:47:59.366Z,99940.67
2023-03-07T09:50:42.004Z,99933.75
2023-03-07T09:53:18.293Z,99575.71
2023-03-07T09:55:47.579Z,99562.71
2023-03-07T09:58:21.885Z,99554.13
2023-03-07T10:00:55.193Z,99544.63
2023-03-07T10:03:42.088Z,99541.85
2023-03-07T10:06:33.790Z,99537.86
2023-03-07T10:09:07.676Z,99542.30
2023-03-07T10:12:08.356Z,99553.13
2023-03-07T10:15:03.795Z,99543.40
2023-03-07T10:17:59.498Z,99536.10
2023-03-07T10:20:48.791Z,99531.02
2023-03-07T10:23:46.212Z,99517.60
2023-03-07T10:26:18.717Z,99497.39
2023-03-07T10:28:47.037Z,99478.30
2023-03-07T10:31:30.047Z,99450.66
2023-03-07T10:33:59.489Z,99418.78
2023-03-07T10:36:43.740Z,99396.91
2023-03-07T10:39:39.743Z,99359.14
2023-03-07T10:42:15.408Z,99305.70
2023-03-07T10:44:46.257Z,99278.62
2023-03-07T10:47:24.876Z,99248.71
2023-03-07T10:50:00.691Z,99211.31
2023-03-07T10:52:33.039Z,99173.33
2023-03-07T10:55:40.019Z,99144.66
2023-03-07T10:58:15.284Z,99104.23
2023-03-07T11:00:44.815Z,99089.32
2023-03-07T11:03:24.437Z,99073.23
2023-03-07T11:05:55.092Z,99062.60
2023-03-07T11:08:35.662Z,99052.29
2023-03-07T11:11:05.086Z,99043.23
2023-03-07T11:13:36.783Z,99032.15
2023-03-07T11:16:21.953Z,99017.81
2023-03-07T11:18:57.755Z,99002.04
2023-03-07T11:21:30.586Z,98997.80
2023-03-07T11:24:07.016Z,98992.97
2023-03-07T11:26:40.501Z,98990.75
2023-03-07T11:29:13.995Z,98983.67
2023-03-07T11:31:49.355Z,98982.88
2023-03-07T11:34:42.566Z,98978.48
2023-03-07T11:37:30.336Z,98970.65
2023-03-07T11:40:29.131Z,98957.32
2023-03-07T11:43:37.963Z,98952.61
2023-03-07T11:46:13.546Z,98946.21
2023-03-07T11:49:02.435Z,98942.44
2023-03-07T11:51:50.357Z,98927.70
2023-03-07T11:54:43.419Z,98921.49
2023-03-07T11:57:43.866Z,98911.91
2023-03-07T12:00:35.202Z,98903.70
2023-03-07T12:03:25.836Z,98895.77
2023-03-07T12:06:15.576Z,98893.16
2023-03-07T12:08:59.225Z,98887.20
2023-03-07T12:11:32.757Z,98889.05
2023-03-07T12:14:07.377Z,98892.25
2023-03-07T12:17:08.444Z,98892.10
2023-03-07T12:19:54.576Z,98886.38
2023-03-07T12:22:41.144Z,98878.06
2023-03-07T12:25:29.132Z,98863.28
2023-03-07T12:28:27.716Z,98849.45
2023-03-07T12:31:00.817Z,98838.59
2023-03-07T12:33:54.534Z,98832.91
2023-03-07T12:36:48.529Z,98828.34
2023-03-07T12:39:44.821Z,98821.63
2023-03-07T12:42:39.079Z,98821.46
2023-03-07T12:45:07.773Z,98823.59
2023-03-07T12:47:40.103Z,98822.26
2023-03-07T12:50:41.700Z,98822.48
2023-03-07T12:53:34.086Z,98814.87
2023-03-07T12:56:18.453Z,98802.52
2023-03-07T12:58:55.047Z,98794.45
2023-03-07T13:01:30.479Z,98783.39
2023-03-07T13:04:18.924Z,98771.98
2023-03-07T13:06:47.619Z,98756.60
2023-03-07T13:09:27.551Z,98750.39
2023-03-07T13:12:16.797Z,98749.85
2023-03-07T13:14:51.713Z,98742.67
2023-03-07T13:17:27.061Z,98747.02
2023-03-07T13:20:03.682Z,98741.77
2023-03-07T13:22:36.913Z,98744.88
2023-03-07T13:25:22.592Z,98744.41
2023-03-07T13:27:54.462Z,98740.59
2023-03-07T13:30:24.590Z,98736.19
2023-03-07T13:32:56.411Z,98744.00
2023-03-07T13:35:30.771Z,98745.93
2023-03-07T13:38:24.816Z,98754.63
2023-03-07T13:41:01.255Z,98749.39
2023-03-07T13:43:30.880Z,98749.17
2023-03-07T13:46:04.575Z,98748.93
2023-03-07T13:48:36.790Z,98742.23
2023-03-07T13:51:09.568Z,98738.87
2023-03-07T13:53:53.481Z,98732.20
2023-03-07T13:56:28.260Z,98726.54
2023-03-07T13:59:12.270Z,98726.10
2023-03-07T14:02:01.470Z,98724.40
2023-03-07T14:04:46.877Z,98720.51
2023-03-07T14:07:20.029Z,98715.17
2023-03-07T14:09:56.732Z,98712.52
2023-03-07T14:13:01.229Z,98712.98
2023-03-07T14:15:40.130Z,98715.41
2023-03-07T14:18:19.836Z,98719.42
2023-03-07T14:21:18.343Z,98716.23
2023-03-07T14:23:56.481Z,98713.95
2023-03-07T14:26:33.799Z,98706.67
2023-03-07T14:29:26.789Z,98707.02
2023-03-07T14:31:57.387Z,98700.48
2023-03-07T14:34:34.528Z,98704.85
2023-03-07T14:37:05.346Z,98702.44
2023-03-07T14:39:56.084Z,98708.59
2023-03-07T14:42:56.912Z,98713.41
2023-03-07T14:45:42.029Z,98716.46
2023-03-07T14:48:20.302Z,98712.66
2023-03-07T14:50:49.641Z,98729.90
2023-03-07T14:53:23.645Z,98742.10
2023-03-07T14:55:54.686Z,98743.92
2023-03-07T14:58:28.831Z,98753.11
2023-03-07T15:01:11.905Z,98768.59
2023-03-07T15:03:48.781Z,98787.12
2023-03-07T15:06:23.380Z,98808.48
2023-03-07T15:08:52.450Z,98840.94
2023-03-07T15:11:36.345Z,98870.44
2023-03-07T15:14:07.703Z,98900.07
2023-03-07T15:16:51.937Z,98920.98
2023-03-07T15:19:23.872Z,98951.45
2023-03-07T15:21:57.153Z,98966.92
2023-03-07T15:24:39.195Z,99000.62
2023-03-07T15:27:11.064Z,99030.98
2023-03-07T15:29:46.411Z,99053.10
2023-03-07T15:32:36.210Z,99072.71
2023-03-07T15:35:39.824Z,99091.61
2023-03-07T15:38:36.644Z,99118.96
2023-03-07T15:41:25.249Z,99151.30
2023-03-07T15:44:04.952Z,99178.83
2023-03-07T15:46:33.947Z,99194.81
2023-03-07T15:49:02.953Z,99204.20
2023-03-07T15:51:36.833Z,99223.52
2023-03-07T15:54:29.237Z,99236.98
2023-03-07T15:56:59.914Z,99249.41
2023-03-07T15:59:29.577Z,99272.08
2023-03-07T16:01:58.070Z,99293.92
2023-03-07T16:04:31.138Z,99312.34
2023-03-07T16:06:59.843Z,99322.94
2023-03-07T16:09:28.622Z,99337.34
2023-03-07T16:11:57.319Z,99351.47
2023-03-07T16:14:29.345Z,99367.67
2023-03-07T16:17:03.873Z,99383.86
2023-03-07T16:19:32.908Z,99396.52
2023-03-07T16:22:01.652Z,99407.33
2023-03-07T16:24:30.745Z,99418.18
2023-03-07T16:26:59.812Z,99426.32
2023-03-07T16:29:28.668Z,99434.52
2023-03-07T16:32:01.562Z,99436.17
2023-03-07T16:34:35.682Z,99441.58
2023-03-07T16:37:04.798Z,99453.50
2023-03-07T16:39:34.089Z,99462.35
2023-03-07T16:42:03.397Z,99473.52
2023-03-07T16:44:32.250Z,99472.50
2023-03-07T16:47:06.129Z,99461.85
2023-03-07T16:49:35.844Z,99458.14
2023-03-07T16:52:12.249Z,99465.05
2023-03-07T16:54:41.384Z,99463.52
2023-03-07T16:57:14.498Z,99459.94
2023-03-07T16:59:45.480Z,99455.70
2023-03-07T17:02:21.445Z,99452.75
2023-03-07T17:04:50.724Z,99446.05
2023-03-07T17:07:22.179Z,99446.27
2023-03-07T17:09:52.039Z,99444.38
2023-03-07T17:12:24.788Z,99442.83
2023-03-07T17:14:59.416Z,99442.13
2023-03-07T17:17:33.737Z,99437.83
2023-03-07T17:20:06.322Z,99437.21
2023-03-07T17:22:35.741Z,99433.24
2023-03-07T17:25:05.944Z,99425.56
2023-03-07T17:27:35.003Z,99420.48
2023-03-07T17:30:05.756Z,99414.10
2023-03-07T17:32:34.738Z,99405.11
2023-03-07T17:35:03.809Z,99389.51
2023-03-07T17:37:32.999Z,99377.70
2023-03-07T17:40:10.358Z,99362.88
2023-03-07T17:42:42.610Z,99340.56
2023-03-07T17:45:12.845Z,99324.04
2023-03-07T17:47:41.560Z,99319.77
2023-03-07T17:50:11.240Z,99307.41
2023-03-07T17:52:40.278Z,99292.96
2023-03-07T17:55:10.206Z,99284.95
2023-03-07T17:57:39.895Z,99281.02
2023-03-07T18:00:13.357Z,99276.19
2023-03-07T18:02:45.759Z,99266.63
2023-03-07T18:05:14.719Z,99255.65
2023-03-07T18:07:43.621Z,99253.74
2023-03-07T18:10:15.970Z,99251.86
2023-03-07T18:12:46.416Z,99245.52
2023-03-07T18:15:16.589Z,99239.73
2023-03-07T18:17:49.147Z,99227.70
2023-03-07T18:20:22.947Z,99217.73
2023-03-07T18:22:51.903Z,99213.63
2023-03-07T18:25:20.972Z,99205.63
2023-03-07T18:27:50.272Z,99205.70
2023-03-07T18:30:20.254Z,99203.43
2023-03-07T18:32:55.587Z,99198.17
2023-03-07T18:35:24.507Z,99193.53
2023-03-07T18:37:53.158Z,99188.66
2023-03-07T18:40:23.086Z,99191.83
2023-03-07T18:42:52.566Z,99184.18
2023-03-07T18:45:21.304Z,99184.75
2023-03-07T18:47:52.211Z,99180.11
2023-03-07T18:50:21.065Z,99180.38
2023-03-07T18:52:54.058Z,99176.85
2023-03-07T18:55:23.372Z,99176.98
2023-03-07T18:57:52.237Z,99179.52
2023-03-07T19:00:21.692Z,99184.89
2023-03-07T19:02:50.583Z,99189.26
2023-03-07T19:05:20.497Z,99192.20
2023-03-07T19:07:49.992Z,99196.02
2023-03-07T19:10:19.097Z,99197.48
2023-03-07T19:12:50.067Z,99199.49
2023-03-07T19:15:19.235Z,99197.83
2023-03-07T19:17:49.795Z,99201.92
2023-03-07T19:20:18.656Z,99202.38
2023-03-07T19:22:47.551Z,99209.04
2023-03-07T19:25:21.739Z,99209.03
2023-03-07T19:27:50.512Z,99212.30
2023-03-07T19:30:20.981Z,99211.39
2023-03-07T19:32:49.991Z,99218.43
2023-03-07T19:35:19.322Z,99218.45
2023-03-07T19:37:48.149Z,99220.14
2023-03-07T19:40:16.972Z,99232.10
2023-03-07T19:42:45.709Z,99233.98
2023-03-07T19:45:20.236Z,99234.99
2023-03-07T19:47:52.267Z,99238.06
2023-03-07T19:50:21.701Z,99243.80
2023-03-07T19:52:51.234Z,99248.35
2023-03-07T19:55:20.496Z,99253.26
2023-03-07T19:57:49.780Z,99255.45
2023-03-07T20:00:20.624Z,99253.81
2023-03-07T20:02:49.459Z,99259.14
2023-03-07T20:05:18.860Z,99261.40
2023-03-07T20:07:50.209Z,99266.05
2023-03-07T20:10:19.642Z,99278.60
2023-03-07T20:12:49.301Z,99284.80
2023-03-07T20:15:19.250Z,99290.86
2023-03-07T20:17:50.376Z,99298.21
2023-03-07T20:20:19.299Z,99299.89
2023-03-07T20:22:57.315Z,99299.73
2023-03-07T20:25:30.037Z,99301.30
2023-03-07T20:27:59.856Z,99304.22
2023-03-07T20:30:32.430Z,99313.91
2023-03-07T20:33:05.027Z,99315.98
2023-03-07T20:35:34.800Z,99323.09
2023-03-07T20:38:03.926Z,99332.48
2023-03-07T20:40:33.211Z,99337.11
2023-03-07T20:43:03.399Z,99339.39
2023-03-07T20:45:32.855Z,99339.46
2023-03-07T20:48:02.843Z,99331.61
2023-03-07T20:50:31.950Z,99332.02
2023-03-07T20:53:01.734Z,99334.54
2023-03-07T20:55:31.124Z,99345.39
2023-03-07T20:58:00.075Z,99359.31
2023-03-07T21:00:29.000Z,99363.20
2023-03-07T21:03:05.688Z,99358.48
2023-03-07T21:05:36.327Z,99359.16
2023-03-07T21:08:05.875Z,99356.83
2023-03-07T21:10:34.697Z,99376.44
2023-03-07T21:13:05.548Z,99373.83
2023-03-07T21:15:36.005Z,99368.92
2023-03-07T21:18:05.202Z,99357.40
2023-03-07T21:20:34.407Z,99350.67
2023-03-07T21:23:23.070Z,99340.90
2023-03-07T21:26:06.644Z,99337.23
2023-03-07T21:28:35.947Z,99329.77
2023-03-07T21:31:32.082Z,99328.19
2023-03-07T21:34:05.201Z,99329.09
2023-03-07T21:36:34.140Z,99386.54
2023-03-07T21:39:05.520Z,99365.87
2023-03-07T21:41:34.717Z,99356.30
2023-03-07T21:44:04.835Z,99350.91
2023-03-07T21:46:34.200Z,99340.05
2023-03-07T21:49:03.136Z,99329.19
2023-03-07T21:51:32.191Z,99327.83
2023-03-07T21:54:01.052Z,99324.45
2023-03-07T21:56:30.012Z,99318.98
2023-03-07T21:58:58.829Z,99315.28
2023-03-07T22:01:29.419Z,99312.92
2023-03-07T22:04:02.030Z,99301.85
2023-03-07T22:06:31.254Z,99296.98
2023-03-07T22:09:01.432Z,99290.23
2023-03-07T22:11:30.104Z,99289.55
2023-03-07T22:13:59.826Z,99287.69
2023-03-07T22:16:29.826Z,99279.41
2023-03-07T22:18:58.684Z,99289.16
2023-03-07T22:21:27.965Z,99289.55
2023-03-07T22:23:58.208Z,99295.73
2023-03-07T22:26:28.016Z,99293.02
2023-03-07T22:28:57.059Z,99302.02
2023-03-07T22:31:26.111Z,99303.83
2023-03-07T22:33:55.115Z,99309.11
2023-03-07T22:36:25.085Z,99315.27
2023-03-07T22:38:55.430Z,99320.31
2023-03-07T22:41:24.595Z,99329.19
2023-03-07T22:43:53.842Z,99330.33
2023-03-07T22:46:22.774Z,99331.61
2023-03-07T22:48:53.638Z,99340.33
2023-03-07T22:51:23.993Z,99341.36
2023-03-07T22:53:54.002Z,99344.77
2023-03-07T22:56:24.716Z,99351.88
2023-03-07T22:58:59.297Z,99344.30
2023-03-07T23:01:29.064Z,99350.14
2023-03-07T23:03:58.638Z,99356.83
2023-03-07T23:06:29.539Z,99359.13
2023-03-07T23:08:59.917Z,99360.64
2023-03-07T23:11:32.959Z,99359.03
2023-03-07T23:14:01.906Z,99362.34
2023-03-07T23:16:31.293Z,99363.84
2023-03-07T23:19:03.816Z,99373.65
2023-03-07T23:21:33.173Z,99379.66
2023-03-07T23:24:05.035Z,99381.70
2023-03-07T23:26:35.969Z,99380.98
2023-03-07T23:29:07.344Z,99387.17
2023-03-07T23:31:37.690Z,99393.30
2023-03-07T23:34:08.788Z,99394.83
2023-03-07T23:36:43.183Z,99399.51
2023-03-07T23:39:12.004Z,99398.34
2023-03-07T23:41:40.166Z,99403.56
2023-03-07T23:44:10.209Z,99409.23
2023-03-07T23:46:38.898Z,99411.09
2023-03-07T23:49:10.983Z,99418.23
2023-03-07T23:51:40.088Z,99422.07
2023-03-07T23:54:09.228Z,99424.34
2023-03-07T23:56:37.862Z,99422.84
2023-03-07T23:59:06.009Z,99425.24
